Weather at Berlin-Tegel Airport

Public forecast

Using degrees Celsius for public forecast. Weather courtesy of forecast.io.

Current aviation weather report (METAR) for Berlin-Tegel Airport

Retrieved 2020/10/22 06:20 UTC (0 seconds ago):

EDDT 220620Z 21006KT 9999 SCT040 14/10 Q1011 NOSIG

Aviation forecast (TAF) for Berlin-Tegel Airport

Retrieved 2020/10/22 06:27 UTC (0 seconds ago):

TAF EDDT 220500Z 2206/2306 20011KT CAVOK PROB30 TEMPO 2210/2213 22015G25KT BECMG 2216/2218 20006KT